sensor_id;sensor_type;location;lat;lon;timestamp;temperature;humidity
10443;DHT22;5269;51.146;16.986;2022-10-31T02:20:38;8.80;99.90
10443;DHT22;5269;51.146;16.986;2022-10-31T02:23:39;8.70;99.90
10443;DHT22;5269;51.146;16.986;2022-10-31T02:26:30;8.60;99.90
10443;DHT22;5269;51.146;16.986;2022-10-31T02:29:22;8.50;99.90
10443;DHT22;5269;51.146;16.986;2022-10-31T02:31:59;8.40;99.90
10443;DHT22;5269;51.146;16.986;2022-10-31T02:34:36;8.30;99.90
10443;DHT22;5269;51.146;16.986;2022-10-31T02:37:26;8.40;99.90
10443;DHT22;5269;51.146;16.986;2022-10-31T02:39:59;8.40;99.90
10443;DHT22;5269;51.146;16.986;2022-10-31T02:42:34;8.50;99.90
10443;DHT22;5269;51.146;16.986;2022-10-31T02:45:09;8.50;99.90
10443;DHT22;5269;51.146;16.986;2022-10-31T02:47:50;8.50;99.90
10443;DHT22;5269;51.146;16.986;2022-10-31T02:50:23;8.50;99.90
10443;DHT22;5269;51.146;16.986;2022-10-31T02:52:51;8.50;99.90
10443;DHT22;5269;51.146;16.986;2022-10-31T02:55:42;8.50;99.90
10443;DHT22;5269;51.146;16.986;2022-10-31T03:01:50;8.40;99.90
10443;DHT22;5269;51.146;16.986;2022-10-31T03:07:54;8.30;99.90
10443;DHT22;5269;51.146;16.986;2022-10-31T03:14:26;8.30;99.90
10443;DHT22;5269;51.146;16.986;2022-10-31T03:27:13;8.30;99.90
10443;DHT22;5269;51.146;16.986;2022-10-31T03:29:43;8.50;99.90
10443;DHT22;5269;51.146;16.986;2022-10-31T03:32:15;8.50;99.90
10443;DHT22;5269;51.146;16.986;2022-10-31T03:34:44;8.30;99.90
10443;DHT22;5269;51.146;16.986;2022-10-31T03:37:15;8.30;99.90
10443;DHT22;5269;51.146;16.986;2022-10-31T03:39:46;8.30;99.90
10443;DHT22;5269;51.146;16.986;2022-10-31T03:42:18;8.30;99.90
10443;DHT22;5269;51.146;16.986;2022-10-31T03:44:52;8.30;99.90
10443;DHT22;5269;51.146;16.986;2022-10-31T03:47:22;8.20;99.90
10443;DHT22;5269;51.146;16.986;2022-10-31T03:49:50;8.30;99.90
10443;DHT22;5269;51.146;16.986;2022-10-31T03:52:21;8.20;99.90
10443;DHT22;5269;51.146;16.986;2022-10-31T03:54:56;8.20;99.90
10443;DHT22;5269;51.146;16.986;2022-10-31T04:04:14;8.30;99.90
10443;DHT22;5269;51.146;16.986;2022-10-31T04:10:10;8.20;99.90
10443;DHT22;5269;51.146;16.986;2022-10-31T04:12:42;8.10;99.90
10443;DHT22;5269;51.146;16.986;2022-10-31T04:15:11;8.10;99.90
10443;DHT22;5269;51.146;16.986;2022-10-31T04:17:40;8.10;99.90
10443;DHT22;5269;51.146;16.986;2022-10-31T04:39:58;7.70;99.90
10443;DHT22;5269;51.146;16.986;2022-10-31T04:45:53;7.70;99.90
10443;DHT22;5269;51.146;16.986;2022-10-31T04:51:54;7.70;99.90
10443;DHT22;5269;51.146;16.986;2022-10-31T04:57:48;7.80;99.90
10443;DHT22;5269;51.146;16.986;2022-10-31T05:07:06;7.80;99.90
10443;DHT22;5269;51.146;16.986;2022-10-31T05:12:58;7.80;99.90
10443;DHT22;5269;51.146;16.986;2022-10-31T05:15:26;7.70;99.90
10443;DHT22;5269;51.146;16.986;2022-10-31T05:17:54;7.60;99.90
10443;DHT22;5269;51.146;16.986;2022-10-31T05:20:23;7.70;99.90
10443;DHT22;5269;51.146;16.986;2022-10-31T05:22:52;7.90;99.90
10443;DHT22;5269;51.146;16.986;2022-10-31T05:25:20;7.90;99.90
10443;DHT22;5269;51.146;16.986;2022-10-31T05:27:49;7.90;99.90
10443;DHT22;5269;51.146;16.986;2022-10-31T05:30:21;7.90;99.90
10443;DHT22;5269;51.146;16.986;2022-10-31T05:32:50;7.80;99.90
10443;DHT22;5269;51.146;16.986;2022-10-31T05:35:23;7.70;99.90
10443;DHT22;5269;51.146;16.986;2022-10-31T05:37:55;7.70;99.90
10443;DHT22;5269;51.146;16.986;2022-10-31T05:40:24;7.80;99.90
10443;DHT22;5269;51.146;16.986;2022-10-31T05:42:53;7.90;99.90
10443;DHT22;5269;51.146;16.986;2022-10-31T05:45:22;7.90;99.90
10443;DHT22;5269;51.146;16.986;2022-10-31T05:47:51;7.90;99.90
10443;DHT22;5269;51.146;16.986;2022-10-31T05:50:19;7.80;99.90
10443;DHT22;5269;51.146;16.986;2022-10-31T05:52:47;7.80;99.90
10443;DHT22;5269;51.146;16.986;2022-10-31T05:55:14;7.70;99.90
10443;DHT22;5269;51.146;16.986;2022-10-31T05:57:44;7.70;99.90
10443;DHT22;5269;51.146;16.986;2022-10-31T06:00:13;7.90;99.90
10443;DHT22;5269;51.146;16.986;2022-10-31T06:02:47;7.90;99.90
10443;DHT22;5269;51.146;16.986;2022-10-31T06:05:17;7.90;99.90
10443;DHT22;5269;51.146;16.986;2022-10-31T06:07:44;7.80;99.90
10443;DHT22;5269;51.146;16.986;2022-10-31T06:10:11;7.80;99.90
10443;DHT22;5269;51.146;16.986;2022-10-31T06:12:39;7.80;99.90
10443;DHT22;5269;51.146;16.986;2022-10-31T06:15:08;7.90;99.90
10443;DHT22;5269;51.146;16.986;2022-10-31T06:17:35;7.90;99.90
10443;DHT22;5269;51.146;16.986;2022-10-31T06:20:07;8.00;99.90
10443;DHT22;5269;51.146;16.986;2022-10-31T06:22:46;8.10;99.90
10443;DHT22;5269;51.146;16.986;2022-10-31T06:25:16;8.20;99.90
10443;DHT22;5269;51.146;16.986;2022-10-31T06:27:49;8.20;99.90
10443;DHT22;5269;51.146;16.986;2022-10-31T06:30:20;8.20;99.90
10443;DHT22;5269;51.146;16.986;2022-10-31T06:32:49;8.20;99.90
10443;DHT22;5269;51.146;16.986;2022-10-31T06:35:18;8.20;99.90
10443;DHT22;5269;51.146;16.986;2022-10-31T06:55:17;8.50;99.90
10443;DHT22;5269;51.146;16.986;2022-10-31T06:58:11;8.70;99.90
10443;DHT22;5269;51.146;16.986;2022-10-31T07:04:08;8.90;99.90
10443;DHT22;5269;51.146;16.986;2022-10-31T07:10:35;9.20;99.90
10443;DHT22;5269;51.146;16.986;2022-10-31T07:16:10;9.50;99.90
10443;DHT22;5269;51.146;16.986;2022-10-31T07:18:45;9.50;99.90
10443;DHT22;5269;51.146;16.986;2022-10-31T07:21:12;9.50;99.90
10443;DHT22;5269;51.146;16.986;2022-10-31T07:23:39;9.60;99.90
10443;DHT22;5269;51.146;16.986;2022-10-31T07:26:11;9.70;99.90
10443;DHT22;5269;51.146;16.986;2022-10-31T07:28:39;9.90;99.90
10443;DHT22;5269;51.146;16.986;2022-10-31T07:31:06;9.90;99.90
10443;DHT22;5269;51.146;16.986;2022-10-31T07:33:33;10.00;99.90
10443;DHT22;5269;51.146;16.986;2022-10-31T07:36:03;10.20;99.90
10443;DHT22;5269;51.146;16.986;2022-10-31T07:38:39;10.40;99.90
10443;DHT22;5269;51.146;16.986;2022-10-31T07:41:07;10.60;99.90
10443;DHT22;5269;51.146;16.986;2022-10-31T07:43:43;10.70;99.90
10443;DHT22;5269;51.146;16.986;2022-10-31T07:46:25;10.90;99.90
10443;DHT22;5269;51.146;16.986;2022-10-31T07:48:55;11.00;99.90
10443;DHT22;5269;51.146;16.986;2022-10-31T07:51:22;11.20;99.90
10443;DHT22;5269;51.146;16.986;2022-10-31T07:53:49;11.30;99.90
10443;DHT22;5269;51.146;16.986;2022-10-31T07:56:19;11.50;99.90
10443;DHT22;5269;51.146;16.986;2022-10-31T07:58:57;11.60;99.90
10443;DHT22;5269;51.146;16.986;2022-10-31T08:01:24;11.70;99.90
10443;DHT22;5269;51.146;16.986;2022-10-31T08:03:51;11.80;99.90
10443;DHT22;5269;51.146;16.986;2022-10-31T08:06:22;12.00;99.90
10443;DHT22;5269;51.146;16.986;2022-10-31T08:08:52;12.20;99.90
10443;DHT22;5269;51.146;16.986;2022-10-31T08:11:20;12.30;99.90
10443;DHT22;5269;51.146;16.986;2022-10-31T08:13:47;12.50;99.90
10443;DHT22;5269;51.146;16.986;2022-10-31T08:16:22;12.60;99.90
10443;DHT22;5269;51.146;16.986;2022-10-31T08:21:30;12.80;99.90
10443;DHT22;5269;51.146;16.986;2022-10-31T08:23:58;13.00;99.90
10443;DHT22;5269;51.146;16.986;2022-10-31T08:39:30;13.90;99.90
10443;DHT22;5269;51.146;16.986;2022-10-31T08:41:58;14.10;99.90
10443;DHT22;5269;51.146;16.986;2022-10-31T08:47:06;14.40;99.90
10443;DHT22;5269;51.146;16.986;2022-10-31T09:48:00;17.30;1.00
10443;DHT22;5269;51.146;16.986;2022-10-31T09:50:37;17.40;1.00
10443;DHT22;5269;51.146;16.986;2022-10-31T09:53:11;17.40;1.00
10443;DHT22;5269;51.146;16.986;2022-10-31T09:55:42;17.50;1.00
10443;DHT22;5269;51.146;16.986;2022-10-31T09:58:15;17.60;1.00
10443;DHT22;5269;51.146;16.986;2022-10-31T10:00:44;17.70;99.90
10443;DHT22;5269;51.146;16.986;2022-10-31T10:03:24;17.80;1.00
10443;DHT22;5269;51.146;16.986;2022-10-31T10:05:59;17.90;99.90
10443;DHT22;5269;51.146;16.986;2022-10-31T10:08:32;17.90;99.90
10443;DHT22;5269;51.146;16.986;2022-10-31T10:14:01;18.00;1.00
10443;DHT22;5269;51.146;16.986;2022-10-31T10:16:41;17.90;43.40
10443;DHT22;5269;51.146;16.986;2022-10-31T10:19:27;18.10;99.90
10443;DHT22;5269;51.146;16.986;2022-10-31T10:22:03;18.00;1.00
10443;DHT22;5269;51.146;16.986;2022-10-31T10:24:47;18.10;1.00
10443;DHT22;5269;51.146;16.986;2022-10-31T10:27:23;18.30;1.00
10443;DHT22;5269;51.146;16.986;2022-10-31T10:29:57;18.30;99.90
10443;DHT22;5269;51.146;16.986;2022-10-31T10:32:28;18.30;99.90
10443;DHT22;5269;51.146;16.986;2022-10-31T10:35:10;18.30;99.90
10443;DHT22;5269;51.146;16.986;2022-10-31T10:37:43;18.30;99.90
10443;DHT22;5269;51.146;16.986;2022-10-31T10:40:17;18.40;1.00
10443;DHT22;5269;51.146;16.986;2022-10-31T10:42:46;18.50;99.90
10443;DHT22;5269;51.146;16.986;2022-10-31T10:45:34;18.60;99.90
10443;DHT22;5269;51.146;16.986;2022-10-31T10:48:29;18.60;99.90
10443;DHT22;5269;51.146;16.986;2022-10-31T10:51:04;18.60;99.90
10443;DHT22;5269;51.146;16.986;2022-10-31T10:53:44;18.60;99.90
10443;DHT22;5269;51.146;16.986;2022-10-31T10:56:36;18.70;99.90
10443;DHT22;5269;51.146;16.986;2022-10-31T10:59:04;18.80;99.90
10443;DHT22;5269;51.146;16.986;2022-10-31T11:01:32;18.90;99.90
10443;DHT22;5269;51.146;16.986;2022-10-31T11:04:02;18.90;41.20
10443;DHT22;5269;51.146;16.986;2022-10-31T11:06:31;18.90;21.60
10443;DHT22;5269;51.146;16.986;2022-10-31T11:09:09;19.10;1.00
10443;DHT22;5269;51.146;16.986;2022-10-31T11:11:38;19.10;1.00
10443;DHT22;5269;51.146;16.986;2022-10-31T11:14:15;19.20;1.00
10443;DHT22;5269;51.146;16.986;2022-10-31T11:16:49;19.30;1.00
10443;DHT22;5269;51.146;16.986;2022-10-31T11:19:21;19.30;1.00
10443;DHT22;5269;51.146;16.986;2022-10-31T11:21:53;19.40;1.00
10443;DHT22;5269;51.146;16.986;2022-10-31T11:24:25;19.50;1.00
10443;DHT22;5269;51.146;16.986;2022-10-31T11:27:14;19.50;1.00
10443;DHT22;5269;51.146;16.986;2022-10-31T11:29:41;19.60;1.00
10443;DHT22;5269;51.146;16.986;2022-10-31T11:32:20;19.60;1.00
10443;DHT22;5269;51.146;16.986;2022-10-31T11:34:51;19.70;1.00
10443;DHT22;5269;51.146;16.986;2022-10-31T11:37:23;19.70;99.90
10443;DHT22;5269;51.146;16.986;2022-10-31T11:39:53;19.70;99.90
10443;DHT22;5269;51.146;16.986;2022-10-31T11:42:22;19.80;99.90
10443;DHT22;5269;51.146;16.986;2022-10-31T11:44:51;19.80;99.90
10443;DHT22;5269;51.146;16.986;2022-10-31T11:47:25;19.70;99.90
10443;DHT22;5269;51.146;16.986;2022-10-31T11:49:54;19.70;99.90
10443;DHT22;5269;51.146;16.986;2022-10-31T11:52:25;19.60;99.90
10443;DHT22;5269;51.146;16.986;2022-10-31T11:54:55;19.80;1.00
10443;DHT22;5269;51.146;16.986;2022-10-31T11:57:24;19.80;1.00
10443;DHT22;5269;51.146;16.986;2022-10-31T11:59:53;20.00;1.00
10443;DHT22;5269;51.146;16.986;2022-10-31T12:02:26;20.00;1.00
10443;DHT22;5269;51.146;16.986;2022-10-31T12:05:07;20.00;1.00
10443;DHT22;5269;51.146;16.986;2022-10-31T12:07:37;20.00;99.90
10443;DHT22;5269;51.146;16.986;2022-10-31T12:10:10;20.10;99.90
10443;DHT22;5269;51.146;16.986;2022-10-31T12:12:53;20.10;99.90
10443;DHT22;5269;51.146;16.986;2022-10-31T12:15:29;20.10;99.90
10443;DHT22;5269;51.146;16.986;2022-10-31T12:18:17;20.00;99.90
10443;DHT22;5269;51.146;16.986;2022-10-31T12:20:53;20.10;99.90
10443;DHT22;5269;51.146;16.986;2022-10-31T12:23:29;20.00;99.90
10443;DHT22;5269;51.146;16.986;2022-10-31T12:26:08;20.10;99.90
10443;DHT22;5269;51.146;16.986;2022-10-31T12:28:52;20.10;99.90
10443;DHT22;5269;51.146;16.986;2022-10-31T12:31:34;20.20;99.90
10443;DHT22;5269;51.146;16.986;2022-10-31T12:34:29;20.20;99.90
10443;DHT22;5269;51.146;16.986;2022-10-31T12:37:10;20.20;99.90
10443;DHT22;5269;51.146;16.986;2022-10-31T12:39:52;20.30;99.90
10443;DHT22;5269;51.146;16.986;2022-10-31T12:42:30;20.20;99.90
10443;DHT22;5269;51.146;16.986;2022-10-31T12:45:26;20.30;99.90
10443;DHT22;5269;51.146;16.986;2022-10-31T12:48:34;20.20;99.90
10443;DHT22;5269;51.146;16.986;2022-10-31T12:51:11;20.20;99.90
10443;DHT22;5269;51.146;16.986;2022-10-31T12:53:53;20.20;99.90
10443;DHT22;5269;51.146;16.986;2022-10-31T12:56:34;20.10;99.90
10443;DHT22;5269;51.146;16.986;2022-10-31T12:59:09;20.10;99.90
10443;DHT22;5269;51.146;16.986;2022-10-31T13:01:40;20.00;99.90
10443;DHT22;5269;51.146;16.986;2022-10-31T13:04:14;20.10;99.90
10443;DHT22;5269;51.146;16.986;2022-10-31T13:06:45;20.20;99.90
10443;DHT22;5269;51.146;16.986;2022-10-31T13:09:17;20.20;99.90
10443;DHT22;5269;51.146;16.986;2022-10-31T13:11:48;20.20;99.90
10443;DHT22;5269;51.146;16.986;2022-10-31T13:14:23;20.30;99.90
10443;DHT22;5269;51.146;16.986;2022-10-31T13:16:51;20.20;99.90
10443;DHT22;5269;51.146;16.986;2022-10-31T13:19:23;20.20;99.90
10443;DHT22;5269;51.146;16.986;2022-10-31T13:22:04;20.20;99.90
10443;DHT22;5269;51.146;16.986;2022-10-31T13:24:36;20.20;99.90
10443;DHT22;5269;51.146;16.986;2022-10-31T13:27:13;20.10;99.90
10443;DHT22;5269;51.146;16.986;2022-10-31T13:29:49;20.20;99.90
10443;DHT22;5269;51.146;16.986;2022-10-31T13:32:21;20.20;99.90
10443;DHT22;5269;51.146;16.986;2022-10-31T13:34:50;20.10;99.90
10443;DHT22;5269;51.146;16.986;2022-10-31T13:37:26;20.10;99.90
10443;DHT22;5269;51.146;16.986;2022-10-31T13:40:05;20.10;99.90
10443;DHT22;5269;51.146;16.986;2022-10-31T13:42:45;20.20;99.90
10443;DHT22;5269;51.146;16.986;2022-10-31T13:45:17;20.10;99.90
10443;DHT22;5269;51.146;16.986;2022-10-31T13:48:34;20.00;99.90
10443;DHT22;5269;51.146;16.986;2022-10-31T13:51:05;20.00;99.90
10443;DHT22;5269;51.146;16.986;2022-10-31T13:53:43;20.00;99.90
10443;DHT22;5269;51.146;16.986;2022-10-31T13:56:23;19.90;99.90
10443;DHT22;5269;51.146;16.986;2022-10-31T13:59:01;19.90;99.90
10443;DHT22;5269;51.146;16.986;2022-10-31T14:01:31;19.80;99.90
10443;DHT22;5269;51.146;16.986;2022-10-31T14:04:02;19.80;99.90
10443;DHT22;5269;51.146;16.986;2022-10-31T14:06:58;19.80;99.90
10443;DHT22;5269;51.146;16.986;2022-10-31T14:16:02;19.70;99.90
10443;DHT22;5269;51.146;16.986;2022-10-31T14:21:40;19.60;99.90
10443;DHT22;5269;51.146;16.986;2022-10-31T14:24:15;19.60;99.90
10443;DHT22;5269;51.146;16.986;2022-10-31T14:30:26;19.50;99.90
10443;DHT22;5269;51.146;16.986;2022-10-31T14:35:57;19.50;99.90
10443;DHT22;5269;51.146;16.986;2022-10-31T14:39:47;19.50;99.90
10443;DHT22;5269;51.146;16.986;2022-10-31T14:48:33;19.20;99.90
10443;DHT22;5269;51.146;16.986;2022-10-31T14:51:56;19.20;99.90
10443;DHT22;5269;51.146;16.986;2022-10-31T14:54:37;19.00;1.00
10443;DHT22;5269;51.146;16.986;2022-10-31T14:57:26;19.00;1.00
10443;DHT22;5269;51.146;16.986;2022-10-31T15:00:29;18.80;1.00
10443;DHT22;5269;51.146;16.986;2022-10-31T15:03:29;18.60;1.00
10443;DHT22;5269;51.146;16.986;2022-10-31T15:06:24;18.40;1.00
10443;DHT22;5269;51.146;16.986;2022-10-31T15:08:56;18.00;99.90
10443;DHT22;5269;51.146;16.986;2022-10-31T15:11:26;17.80;1.00
10443;DHT22;5269;51.146;16.986;2022-10-31T15:13:58;17.60;99.90
10443;DHT22;5269;51.146;16.986;2022-10-31T15:16:39;17.50;1.00
10443;DHT22;5269;51.146;16.986;2022-10-31T15:22:46;17.40;1.00
10443;DHT22;5269;51.146;16.986;2022-10-31T15:28:56;17.10;99.90
10443;DHT22;5269;51.146;16.986;2022-10-31T15:31:27;17.10;99.90
10443;DHT22;5269;51.146;16.986;2022-10-31T15:33:57;16.90;1.00
10443;DHT22;5269;51.146;16.986;2022-10-31T15:36:27;16.70;99.90
10443;DHT22;5269;51.146;16.986;2022-10-31T15:39:02;16.60;99.90
10443;DHT22;5269;51.146;16.986;2022-10-31T15:41:33;16.50;1.00
10443;DHT22;5269;51.146;16.986;2022-10-31T15:44:15;16.30;1.00
10443;DHT22;5269;51.146;16.986;2022-10-31T15:46:55;16.20;63.00
10443;DHT22;5269;51.146;16.986;2022-10-31T15:49:47;16.10;1.00
10443;DHT22;5269;51.146;16.986;2022-10-31T15:52:18;16.00;62.40
10443;DHT22;5269;51.146;16.986;2022-10-31T15:54:57;15.90;1.00
10443;DHT22;5269;51.146;16.986;2022-10-31T15:57:27;15.80;99.90
10443;DHT22;5269;51.146;16.986;2022-10-31T16:00:01;15.60;1.00
10443;DHT22;5269;51.146;16.986;2022-10-31T16:02:31;15.40;1.00
10443;DHT22;5269;51.146;16.986;2022-10-31T16:05:18;15.30;1.00
10443;DHT22;5269;51.146;16.986;2022-10-31T16:07:48;15.20;1.00
10443;DHT22;5269;51.146;16.986;2022-10-31T16:10:23;15.20;26.50
10443;DHT22;5269;51.146;16.986;2022-10-31T16:12:51;15.30;99.90
10443;DHT22;5269;51.146;16.986;2022-10-31T16:15:22;15.30;1.00
10443;DHT22;5269;51.146;16.986;2022-10-31T16:17:50;15.10;1.00
10443;DHT22;5269;51.146;16.986;2022-10-31T16:20:20;15.00;1.00
10443;DHT22;5269;51.146;16.986;2022-10-31T16:22:53;14.80;39.10
10443;DHT22;5269;51.146;16.986;2022-10-31T16:25:26;14.80;99.90
10443;DHT22;5269;51.146;16.986;2022-10-31T16:28:05;14.70;99.90
10443;DHT22;5269;51.146;16.986;2022-10-31T16:30:46;14.60;99.90
10443;DHT22;5269;51.146;16.986;2022-10-31T16:33:27;14.40;99.90
10443;DHT22;5269;51.146;16.986;2022-10-31T16:35:55;14.30;99.90
10443;DHT22;5269;51.146;16.986;2022-10-31T16:38:25;14.30;99.90
10443;DHT22;5269;51.146;16.986;2022-10-31T16:40:52;14.20;99.90
10443;DHT22;5269;51.146;16.986;2022-10-31T16:43:21;14.10;99.90
10443;DHT22;5269;51.146;16.986;2022-10-31T16:45:53;14.20;99.90
10443;DHT22;5269;51.146;16.986;2022-10-31T16:48:22;14.30;99.90
10443;DHT22;5269;51.146;16.986;2022-10-31T16:50:49;14.20;99.90
10443;DHT22;5269;51.146;16.986;2022-10-31T16:53:17;14.20;99.90
10443;DHT22;5269;51.146;16.986;2022-10-31T16:55:46;14.10;99.90
10443;DHT22;5269;51.146;16.986;2022-10-31T16:58:17;14.10;99.90
10443;DHT22;5269;51.146;16.986;2022-10-31T17:00:45;14.00;99.90
10443;DHT22;5269;51.146;16.986;2022-10-31T17:03:14;14.00;99.90
10443;DHT22;5269;51.146;16.986;2022-10-31T17:05:41;13.90;99.90
10443;DHT22;5269;51.146;16.986;2022-10-31T17:08:08;13.70;99.90
10443;DHT22;5269;51.146;16.986;2022-10-31T17:10:35;13.60;99.90
10443;DHT22;5269;51.146;16.986;2022-10-31T17:13:04;13.50;99.90
10443;DHT22;5269;51.146;16.986;2022-10-31T17:15:40;13.50;99.90
10443;DHT22;5269;51.146;16.986;2022-10-31T17:21:26;13.40;99.90
10443;DHT22;5269;51.146;16.986;2022-10-31T17:23:53;13.30;99.90
10443;DHT22;5269;51.146;16.986;2022-10-31T17:26:22;13.20;99.90
10443;DHT22;5269;51.146;16.986;2022-10-31T17:28:52;13.10;99.90
10443;DHT22;5269;51.146;16.986;2022-10-31T17:31:21;13.00;99.90
10443;DHT22;5269;51.146;16.986;2022-10-31T17:33:50;12.90;99.90
10443;DHT22;5269;51.146;16.986;2022-10-31T17:36:17;12.90;99.90
10443;DHT22;5269;51.146;16.986;2022-10-31T17:38:45;12.80;99.90
10443;DHT22;5269;51.146;16.986;2022-10-31T17:41:12;12.70;99.90
10443;DHT22;5269;51.146;16.986;2022-10-31T17:43:39;12.60;99.90
10443;DHT22;5269;51.146;16.986;2022-10-31T17:46:06;12.50;99.90
10443;DHT22;5269;51.146;16.986;2022-10-31T17:48:34;12.50;99.90
10443;DHT22;5269;51.146;16.986;2022-10-31T17:51:03;12.40;99.90
10443;DHT22;5269;51.146;16.986;2022-10-31T17:56:28;12.40;99.90
10443;DHT22;5269;51.146;16.986;2022-10-31T18:02:02;12.40;99.90
10443;DHT22;5269;51.146;16.986;2022-10-31T18:07:43;12.50;99.90
10443;DHT22;5269;51.146;16.986;2022-10-31T18:16:28;12.60;99.90
10443;DHT22;5269;51.146;16.986;2022-10-31T18:18:57;12.50;99.90
10443;DHT22;5269;51.146;16.986;2022-10-31T18:32:26;11.90;99.90
10443;DHT22;5269;51.146;16.986;2022-10-31T18:56:12;11.80;99.90
10443;DHT22;5269;51.146;16.986;2022-10-31T19:05:27;12.00;99.90
10443;DHT22;5269;51.146;16.986;2022-10-31T19:07:55;12.00;99.90
10443;DHT22;5269;51.146;16.986;2022-10-31T19:10:35;11.90;99.90
10443;DHT22;5269;51.146;16.986;2022-10-31T19:17:19;11.80;99.90
10443;DHT22;5269;51.146;16.986;2022-10-31T19:19:56;11.80;99.90
10443;DHT22;5269;51.146;16.986;2022-10-31T19:22:25;11.80;99.90
10443;DHT22;5269;51.146;16.986;2022-10-31T19:27:33;11.80;99.90
10443;DHT22;5269;51.146;16.986;2022-10-31T20:52:53;11.00;99.90
10443;DHT22;5269;51.146;16.986;2022-10-31T20:55:27;11.00;99.90
10443;DHT22;5269;51.146;16.986;2022-10-31T20:57:57;11.10;99.90
10443;DHT22;5269;51.146;16.986;2022-10-31T21:00:26;11.10;99.90
10443;DHT22;5269;51.146;16.986;2022-10-31T21:02:55;11.00;99.90
10443;DHT22;5269;51.146;16.986;2022-10-31T22:44:52;10.20;99.90
10443;DHT22;5269;51.146;16.986;2022-10-31T22:47:24;10.20;99.90
10443;DHT22;5269;51.146;16.986;2022-10-31T22:53:24;10.40;99.90
